Heisdorf-sur-Alzette, Luxembourg
Current Conditions -  °F | °C
As of 10:20 AM on Thursday 27 Nov 2014 (Local Time) from ELLX Reporting Station
Drizzle Drizzle  
Wind Chill: 39°   Ceiling: 500
Heat Index: 43°   Visibility: 0.93mi
Dew Point: 41°   Wind: 6mph
Humidity: 93%   Direction: 70°ENE
Pressure: 29.77"   Gusts: NA
Location:  49.67°N, 6.14°E
Report Text: ELLX 270920Z 07005KT 040V100 1500 R06/P1500N BR -DZ SCT002 BKN005 06/05 Q1008 NOSIG
Loading
Personal Weather Stations






























Interactive Weather Map New forecast layout! Learn more

10-Day Weather Forecast

Advertisements
Track Severe Weather on mobile